createdAt,value
2017-12-23T00:01:42.616Z,60.30
2017-12-23T00:04:11.347Z,53.53
2017-12-23T00:06:40.792Z,53.23
2017-12-23T00:09:09.722Z,57.10
2017-12-23T00:11:39.085Z,53.00
2017-12-23T00:14:07.757Z,57.97
2017-12-23T00:16:37.662Z,66.50
2017-12-23T00:19:06.348Z,68.37
2017-12-23T00:21:35.133Z,79.87
2017-12-23T00:24:03.819Z,75.30
2017-12-23T00:26:32.508Z,74.53
2017-12-23T00:29:01.101Z,73.23
2017-12-23T00:31:29.837Z,70.40
2017-12-23T00:33:58.567Z,55.93
2017-12-23T00:36:27.200Z,53.60
2017-12-23T00:38:56.572Z,57.53
2017-12-23T00:41:25.244Z,48.60
2017-12-23T00:43:53.835Z,55.90
2017-12-23T00:46:22.719Z,59.00
2017-12-23T00:48:51.416Z,53.27
2017-12-23T00:51:20.085Z,51.73
2017-12-23T00:53:48.832Z,48.73
2017-12-23T00:56:18.288Z,53.67
2017-12-23T00:58:46.975Z,54.60
2017-12-23T01:01:16.178Z,57.33
2017-12-23T01:03:44.866Z,54.43
2017-12-23T01:06:13.453Z,58.50
2017-12-23T01:08:42.239Z,83.80
2017-12-23T01:11:10.864Z,186.17
2017-12-23T01:13:40.283Z,200.23
2017-12-23T01:16:08.976Z,174.67
2017-12-23T01:18:37.699Z,98.90
2017-12-23T01:21:06.343Z,109.20
2017-12-23T01:23:35.078Z,65.97
2017-12-23T01:26:03.726Z,52.87
2017-12-23T01:28:32.448Z,49.73
2017-12-23T01:31:01.613Z,52.93
2017-12-23T01:33:30.281Z,50.27
2017-12-23T01:35:59.600Z,45.03
2017-12-23T01:38:28.466Z,79.70
2017-12-23T01:40:57.888Z,160.03
2017-12-23T01:43:27.331Z,86.47
2017-12-23T01:45:58.476Z,69.23
2017-12-23T01:48:34.844Z,54.97
2017-12-23T01:51:03.530Z,54.47
2017-12-23T01:53:32.216Z,54.53
2017-12-23T01:56:00.870Z,53.10
2017-12-23T01:58:29.863Z,65.90
2017-12-23T02:00:58.582Z,56.73
2017-12-23T02:03:27.224Z,59.67
2017-12-23T02:05:55.965Z,48.83
2017-12-23T02:08:24.585Z,54.17
2017-12-23T02:10:54.051Z,51.23
2017-12-23T02:13:22.934Z,51.40
2017-12-23T02:15:51.590Z,51.83
2017-12-23T02:18:20.208Z,54.73
2017-12-23T02:20:49.817Z,46.60
2017-12-23T02:23:18.388Z,50.23
2017-12-23T02:25:47.083Z,55.60
2017-12-23T02:28:15.874Z,50.40
2017-12-23T02:30:44.561Z,49.50
2017-12-23T02:33:13.142Z,46.67
2017-12-23T02:35:41.857Z,45.37
2017-12-23T02:38:10.409Z,53.77
2017-12-23T02:40:39.096Z,54.17
2017-12-23T02:43:08.259Z,48.57
2017-12-23T02:45:36.984Z,57.27
2017-12-23T02:48:05.531Z,51.90
2017-12-23T02:50:34.256Z,53.37
2017-12-23T02:53:02.927Z,51.63
2017-12-23T02:55:31.570Z,49.87
2017-12-23T02:58:01.591Z,48.77
2017-12-23T03:00:31.042Z,74.27
2017-12-23T03:02:59.677Z,56.53
2017-12-23T03:05:29.335Z,56.87
2017-12-23T03:07:58.022Z,55.33
2017-12-23T03:10:26.608Z,56.00
2017-12-23T03:12:55.392Z,48.57
2017-12-23T03:15:23.980Z,42.13
2017-12-23T03:17:52.682Z,52.50
2017-12-23T03:20:22.149Z,64.27
2017-12-23T03:22:50.714Z,56.63
2017-12-23T03:25:19.363Z,63.10
2017-12-23T03:27:48.250Z,55.53
2017-12-23T03:30:16.968Z,80.20
2017-12-23T03:32:45.609Z,86.03
2017-12-23T03:35:15.074Z,74.20
2017-12-23T03:37:43.695Z,86.67
2017-12-23T03:40:13.109Z,71.43
2017-12-23T03:42:42.564Z,55.50
2017-12-23T03:45:11.245Z,52.53
2017-12-23T03:47:39.888Z,47.37
2017-12-23T03:50:08.681Z,42.10
2017-12-23T03:52:37.400Z,49.37
2017-12-23T03:55:05.991Z,44.30
2017-12-23T03:57:34.681Z,45.87
2017-12-23T04:00:03.356Z,44.30
2017-12-23T04:02:32.042Z,52.43
2017-12-23T04:05:00.728Z,50.53
2017-12-23T04:07:29.399Z,63.37
2017-12-23T04:09:58.099Z,58.87
2017-12-23T04:12:26.695Z,79.63
2017-12-23T04:14:55.426Z,73.10
2017-12-23T04:17:24.154Z,91.80
2017-12-23T04:19:52.885Z,56.97
2017-12-23T04:22:22.346Z,60.60
2017-12-23T04:24:51.016Z,65.80
2017-12-23T04:27:20.786Z,65.10
2017-12-23T04:29:50.245Z,70.30
2017-12-23T04:32:18.820Z,68.07
2017-12-23T04:34:47.610Z,66.47
2017-12-23T04:37:16.258Z,58.60
2017-12-23T04:39:44.877Z,81.20
2017-12-23T04:42:13.609Z,65.70
2017-12-23T04:44:43.070Z,63.47
2017-12-23T04:47:11.703Z,54.23
2017-12-23T04:49:41.439Z,57.30
2017-12-23T04:52:10.146Z,86.03
2017-12-23T04:54:38.832Z,90.43
2017-12-23T04:57:07.823Z,68.73
2017-12-23T04:59:36.457Z,115.03
2017-12-23T05:02:05.920Z,199.97
2017-12-23T05:04:34.704Z,117.90
2017-12-23T05:07:03.290Z,69.47
2017-12-23T05:09:31.863Z,65.30
2017-12-23T05:12:00.564Z,59.53
2017-12-23T05:14:29.235Z,61.43
2017-12-23T05:16:57.922Z,129.93
2017-12-23T05:19:27.123Z,154.50
2017-12-23T05:21:55.765Z,132.57
2017-12-23T05:24:24.496Z,100.23
2017-12-23T05:26:53.195Z,140.30
2017-12-23T05:29:21.912Z,103.63
2017-12-23T05:31:51.372Z,218.83
2017-12-23T05:34:20.092Z,154.87
2017-12-23T05:36:49.556Z,99.80
2017-12-23T05:39:18.207Z,110.43
2017-12-23T05:41:46.927Z,102.83
2017-12-23T05:44:15.567Z,93.70
2017-12-23T05:46:44.258Z,87.13
2017-12-23T05:49:12.984Z,72.70
2017-12-23T05:51:41.618Z,132.97
2017-12-23T05:54:11.079Z,155.77
2017-12-23T05:56:39.755Z,97.03
2017-12-23T05:59:08.450Z,138.77
2017-12-23T06:01:37.028Z,82.10
2017-12-23T06:04:05.713Z,61.37
2017-12-23T06:06:34.398Z,86.27
2017-12-23T06:09:03.085Z,114.50
2017-12-23T06:11:32.078Z,76.33
2017-12-23T06:14:00.765Z,56.90
2017-12-23T06:16:29.352Z,53.83
2017-12-23T06:18:58.285Z,55.93
2017-12-23T06:21:27.702Z,67.53
2017-12-23T06:23:56.426Z,73.50
2017-12-23T06:26:25.158Z,79.43
2017-12-23T06:28:54.624Z,78.77
2017-12-23T06:31:23.164Z,76.80
2017-12-23T06:33:52.667Z,84.43
2017-12-23T06:36:21.392Z,97.10
2017-12-23T06:38:50.026Z,109.80
2017-12-23T06:41:19.544Z,108.90
2017-12-23T06:43:48.275Z,117.50
2017-12-23T06:46:16.962Z,129.37
2017-12-23T06:48:45.953Z,123.67
2017-12-23T06:51:14.534Z,126.70
2017-12-23T06:53:44.127Z,116.87
2017-12-23T06:56:13.119Z,96.07
2017-12-23T06:58:41.716Z,84.77
2017-12-23T07:01:10.661Z,78.97
2017-12-23T07:03:40.122Z,83.40
2017-12-23T07:06:08.805Z,79.33
2017-12-23T07:08:37.584Z,50.67
2017-12-23T07:11:06.231Z,45.53
2017-12-23T07:13:34.963Z,104.90
2017-12-23T07:16:04.003Z,82.97
2017-12-23T07:18:33.464Z,104.50
2017-12-23T07:21:02.041Z,191.13
2017-12-23T07:23:31.034Z,71.57
2017-12-23T07:25:59.581Z,64.10
2017-12-23T07:28:28.255Z,67.63
2017-12-23T07:30:58.112Z,61.33
2017-12-23T07:33:26.808Z,52.63
2017-12-23T07:35:55.494Z,52.43
2017-12-23T07:38:24.174Z,51.93
2017-12-23T07:40:52.867Z,50.93
2017-12-23T07:43:21.553Z,35.33
2017-12-23T07:45:50.279Z,99.27
2017-12-23T07:48:19.736Z,115.27
2017-12-23T07:50:48.342Z,66.20
2017-12-23T07:53:17.268Z,53.63
2017-12-23T07:55:46.716Z,46.57
2017-12-23T07:58:15.486Z,68.53
2017-12-23T08:00:44.237Z,55.60
2017-12-23T08:03:13.698Z,57.10
2017-12-23T08:05:42.349Z,68.57
2017-12-23T08:08:11.277Z,63.33
2017-12-23T08:10:39.963Z,48.37
2017-12-23T08:13:08.877Z,44.80
2017-12-23T08:15:37.838Z,40.93
2017-12-23T08:18:06.484Z,32.20
2017-12-23T08:20:35.894Z,35.23
2017-12-23T08:23:05.641Z,40.33
2017-12-23T08:25:34.227Z,49.97
2017-12-23T08:28:02.917Z,37.93
2017-12-23T08:30:31.699Z,32.77
2017-12-23T08:33:00.441Z,45.53
2017-12-23T08:35:29.894Z,57.33
2017-12-23T08:37:58.678Z,46.43
2017-12-23T08:40:27.322Z,59.37
2017-12-23T08:42:56.051Z,40.40
2017-12-23T08:45:25.007Z,47.53
2017-12-23T08:47:53.549Z,40.77
2017-12-23T08:50:22.216Z,44.43
2017-12-23T08:52:51.061Z,46.17
2017-12-23T08:55:19.795Z,70.03
2017-12-23T08:57:48.421Z,63.30
2017-12-23T09:00:18.081Z,75.60
2017-12-23T09:02:46.766Z,46.53
2017-12-23T09:05:15.459Z,48.43
2017-12-23T09:07:44.337Z,55.83
2017-12-23T09:10:13.033Z,43.67
2017-12-23T09:12:41.718Z,41.13
2017-12-23T09:15:10.405Z,34.33
2017-12-23T09:17:38.990Z,30.37
2017-12-23T09:20:07.628Z,30.30
2017-12-23T09:22:38.402Z,22.83
2017-12-23T09:25:07.088Z,28.27
2017-12-23T09:27:35.774Z,30.20
2017-12-23T09:30:04.668Z,22.47
2017-12-23T09:32:33.295Z,23.43
2017-12-23T09:35:02.753Z,29.30
2017-12-23T09:37:31.705Z,30.27
2017-12-23T09:40:00.398Z,31.70
2017-12-23T09:42:29.019Z,36.43
2017-12-23T09:44:57.703Z,33.80
2017-12-23T09:47:26.391Z,25.53
2017-12-23T09:49:55.079Z,21.87
2017-12-23T09:52:23.884Z,33.60
2017-12-23T09:54:52.545Z,29.20
2017-12-23T09:57:21.539Z,22.00
2017-12-23T09:59:50.490Z,26.90
2017-12-23T10:02:19.133Z,24.67
2017-12-23T10:04:47.902Z,22.90
2017-12-23T10:07:16.636Z,21.30
2017-12-23T10:09:46.098Z,28.50
2017-12-23T10:12:14.644Z,27.47
2017-12-23T10:14:43.318Z,34.77
2017-12-23T10:17:12.762Z,35.50
2017-12-23T10:19:41.455Z,25.73
2017-12-23T10:22:10.448Z,16.03
2017-12-23T10:24:39.133Z,18.30
2017-12-23T10:27:07.820Z,17.27
2017-12-23T10:29:36.649Z,20.07
2017-12-23T10:32:06.112Z,16.63
2017-12-23T10:34:34.798Z,15.77
2017-12-23T10:37:03.675Z,15.13
2017-12-23T10:39:32.220Z,32.93
2017-12-23T10:42:01.639Z,28.77
2017-12-23T10:44:30.509Z,18.00
2017-12-23T10:46:59.971Z,21.03
2017-12-23T10:49:28.641Z,21.23
2017-12-23T10:51:57.336Z,23.37
2017-12-23T10:54:26.030Z,20.97
2017-12-23T10:56:54.645Z,20.00
2017-12-23T10:59:23.288Z,20.10
2017-12-23T11:01:51.976Z,21.07
2017-12-23T11:04:20.561Z,12.83
2017-12-23T11:06:49.555Z,18.87
2017-12-23T11:09:18.176Z,13.57
2017-12-23T11:11:47.604Z,11.57
2017-12-23T11:14:16.537Z,9.47
2017-12-23T11:16:45.164Z,14.00
2017-12-23T11:19:14.619Z,14.43
2017-12-23T11:21:43.414Z,18.90
2017-12-23T11:24:12.912Z,18.93
2017-12-23T11:26:41.597Z,18.23
2017-12-23T11:29:10.688Z,20.93
2017-12-23T11:31:39.386Z,23.07
2017-12-23T11:34:07.961Z,15.27
2017-12-23T11:36:36.757Z,17.93
2017-12-23T11:39:05.451Z,17.67
2017-12-23T11:41:34.130Z,15.37
2017-12-23T11:44:02.962Z,20.83
2017-12-23T11:46:32.421Z,18.43
2017-12-23T11:49:01.041Z,15.50
2017-12-23T11:51:29.792Z,21.33
2017-12-23T11:53:58.478Z,19.47
2017-12-23T11:56:27.053Z,17.67
2017-12-23T11:58:56.048Z,18.30
2017-12-23T12:01:25.413Z,19.30
2017-12-23T12:03:54.001Z,14.10
2017-12-23T12:06:23.044Z,13.90
2017-12-23T12:08:52.503Z,16.80
2017-12-23T12:11:21.188Z,15.30
2017-12-23T12:13:50.072Z,16.03
2017-12-23T12:16:18.757Z,22.17
2017-12-23T12:18:47.443Z,27.17
2017-12-23T12:21:16.238Z,18.50
2017-12-23T12:23:44.925Z,19.23
2017-12-23T12:26:13.559Z,27.27
2017-12-23T12:28:43.053Z,26.43
2017-12-23T12:31:12.408Z,21.80
2017-12-23T12:33:40.994Z,17.47
2017-12-23T12:36:09.730Z,15.93
2017-12-23T12:38:39.190Z,15.53
2017-12-23T12:41:07.877Z,16.87
2017-12-23T12:43:36.909Z,16.97
2017-12-23T12:46:06.368Z,14.70
2017-12-23T12:48:34.954Z,11.83
2017-12-23T12:51:03.688Z,11.60
2017-12-23T12:53:33.149Z,9.57
2017-12-23T12:56:01.723Z,12.93
2017-12-23T12:58:30.716Z,18.80
2017-12-23T13:00:59.403Z,23.17
2017-12-23T13:03:28.086Z,30.40
2017-12-23T13:05:56.943Z,45.40
2017-12-23T13:08:25.666Z,47.57
2017-12-23T13:10:54.304Z,52.77
2017-12-23T13:13:23.794Z,42.13
2017-12-23T13:15:53.259Z,30.67
2017-12-23T13:18:21.836Z,38.13
2017-12-23T13:20:50.624Z,46.47
2017-12-23T13:23:19.315Z,36.37
2017-12-23T13:25:47.860Z,24.97
2017-12-23T13:28:16.752Z,32.70
2017-12-23T13:30:45.420Z,30.67
2017-12-23T13:33:14.882Z,31.73
2017-12-23T13:35:43.730Z,78.30
2017-12-23T13:38:12.398Z,130.83
2017-12-23T13:40:41.860Z,133.07
2017-12-23T13:43:10.646Z,281.80
2017-12-23T13:45:39.331Z,132.43
2017-12-23T13:48:07.968Z,284.97
2017-12-23T13:50:37.416Z,658.53
2017-12-23T13:53:06.003Z,278.70
2017-12-23T13:55:34.646Z,502.90
2017-12-23T13:58:03.440Z,623.27
2017-12-23T14:00:32.107Z,268.27
2017-12-23T14:03:01.568Z,507.97
2017-12-23T14:05:30.353Z,111.40
2017-12-23T14:07:59.038Z,255.07
2017-12-23T14:10:27.678Z,50.37
2017-12-23T14:12:57.640Z,102.00
2017-12-23T14:15:26.264Z,85.90
2017-12-23T14:17:55.625Z,31.17
2017-12-23T14:20:24.673Z,45.17
2017-12-23T14:22:53.402Z,50.67
2017-12-23T14:25:22.089Z,32.60
2017-12-23T14:27:50.798Z,35.13
2017-12-23T14:30:19.462Z,51.37
2017-12-23T14:32:48.145Z,78.70
2017-12-23T14:35:16.830Z,39.27
2017-12-23T14:37:45.472Z,37.50
2017-12-23T14:40:14.154Z,36.90
2017-12-23T14:42:43.712Z,33.27
2017-12-23T14:45:12.397Z,33.20
2017-12-23T14:47:40.984Z,45.63
2017-12-23T14:50:09.812Z,30.07
2017-12-23T14:52:39.277Z,34.10
2017-12-23T14:55:07.943Z,40.50
2017-12-23T14:57:36.636Z,43.97
2017-12-23T15:00:05.328Z,45.53
2017-12-23T15:02:33.909Z,41.43
2017-12-23T15:05:02.595Z,47.00
2017-12-23T15:07:31.282Z,63.63
2017-12-23T15:09:59.868Z,65.80
2017-12-23T15:12:28.863Z,66.23
2017-12-23T15:14:57.440Z,169.80
2017-12-23T15:17:26.027Z,81.13
2017-12-23T15:19:54.770Z,72.67
2017-12-23T15:22:24.267Z,43.77
2017-12-23T15:24:53.728Z,52.20
2017-12-23T15:27:22.576Z,75.30
2017-12-23T15:29:51.297Z,75.90
2017-12-23T15:32:19.936Z,120.07
2017-12-23T15:34:50.106Z,127.20
2017-12-23T15:37:18.794Z,110.20
2017-12-23T15:39:47.373Z,102.13
2017-12-23T15:42:16.208Z,74.30
2017-12-23T15:44:45.672Z,108.73
2017-12-23T15:47:14.290Z,115.27
2017-12-23T15:49:44.470Z,105.63
2017-12-23T15:52:13.156Z,134.30
2017-12-23T15:54:41.842Z,75.67
2017-12-23T15:57:10.933Z,83.63
2017-12-23T15:59:39.630Z,82.27
2017-12-23T16:02:08.246Z,88.73
2017-12-23T16:04:37.100Z,123.67
2017-12-23T16:07:05.787Z,153.70
2017-12-23T16:09:34.374Z,188.37
2017-12-23T16:12:03.060Z,159.10
2017-12-23T16:14:31.745Z,91.50
2017-12-23T16:17:00.377Z,79.53
2017-12-23T16:19:29.872Z,65.50
2017-12-23T16:21:59.343Z,63.20
2017-12-23T16:24:27.980Z,81.73
2017-12-23T16:26:57.481Z,83.93
2017-12-23T16:29:26.212Z,96.73
2017-12-23T16:31:54.836Z,88.23
2017-12-23T16:34:24.353Z,90.27
2017-12-23T16:36:53.801Z,99.10
2017-12-23T16:39:22.597Z,128.13
2017-12-23T16:41:51.432Z,118.80
2017-12-23T16:44:20.890Z,209.13
2017-12-23T16:46:49.576Z,251.30
2017-12-23T16:49:18.311Z,123.70
2017-12-23T16:51:47.760Z,135.30
2017-12-23T16:54:16.349Z,112.67
2017-12-23T16:56:45.439Z,144.73
2017-12-23T16:59:14.125Z,149.10
2017-12-23T17:01:42.814Z,244.07
2017-12-23T17:04:11.438Z,239.33
2017-12-23T17:06:40.906Z,142.73
2017-12-23T17:09:09.592Z,229.53
2017-12-23T17:11:38.476Z,210.77
2017-12-23T17:14:07.161Z,143.80
2017-12-23T17:16:35.847Z,113.10
2017-12-23T17:19:04.642Z,110.83
2017-12-23T17:21:33.329Z,156.83
2017-12-23T17:24:02.006Z,153.43
2017-12-23T17:26:30.753Z,193.50
2017-12-23T17:29:17.869Z,162.77
2017-12-23T17:31:47.461Z,166.77
2017-12-23T17:34:16.824Z,159.03
2017-12-23T17:36:45.609Z,138.23
2017-12-23T17:39:14.311Z,189.00
2017-12-23T17:41:42.982Z,168.30
2017-12-23T17:44:11.624Z,206.90
2017-12-23T17:46:40.518Z,294.20
2017-12-23T17:49:09.247Z,144.63
2017-12-23T17:51:37.933Z,158.60
2017-12-23T17:54:06.926Z,151.43
2017-12-23T17:56:36.435Z,149.47
2017-12-23T17:59:04.977Z,148.63
2017-12-23T18:01:33.664Z,161.13
2017-12-23T18:04:02.232Z,203.40
2017-12-23T18:06:31.631Z,176.43
2017-12-23T18:09:01.131Z,191.97
2017-12-23T18:11:30.697Z,207.50
2017-12-23T18:13:59.386Z,472.27
2017-12-23T18:16:28.328Z,224.67
2017-12-23T18:18:57.724Z,250.73
2017-12-23T18:21:27.142Z,345.57
2017-12-23T18:23:56.009Z,192.33
2017-12-23T18:26:25.373Z,243.80
2017-12-23T18:28:53.959Z,372.70
2017-12-23T18:31:22.687Z,831.43
2017-12-23T18:33:52.904Z,565.30
2017-12-23T18:36:22.473Z,637.97
2017-12-23T18:38:51.258Z,1034.63
2017-12-23T18:41:19.934Z,901.90
2017-12-23T18:43:48.625Z,662.13
2017-12-23T18:46:17.370Z,190.90
2017-12-23T18:48:46.038Z,776.23
2017-12-23T18:51:15.451Z,541.37
2017-12-23T18:53:45.009Z,611.60
2017-12-23T18:56:13.640Z,1000.73
2017-12-23T18:58:43.104Z,967.43
2017-12-23T19:01:11.895Z,824.53
2017-12-23T19:03:40.673Z,443.03
2017-12-23T19:06:09.360Z,368.10
2017-12-23T19:08:38.155Z,221.50
2017-12-23T19:11:06.793Z,127.83
2017-12-23T19:13:35.526Z,182.00
2017-12-23T19:16:04.311Z,604.47
2017-12-23T19:18:32.998Z,762.03
2017-12-23T19:21:01.584Z,116.53
2017-12-23T19:23:30.269Z,106.63
2017-12-23T19:25:58.955Z,494.80
2017-12-23T19:28:27.740Z,440.03
2017-12-23T19:30:56.438Z,469.77
2017-12-23T19:33:25.055Z,196.77
2017-12-23T19:35:54.511Z,489.80
2017-12-23T19:38:24.011Z,106.40
2017-12-23T19:40:52.804Z,796.30
2017-12-23T19:43:21.495Z,408.40
2017-12-23T19:45:50.669Z,387.93
2017-12-23T19:48:19.378Z,273.50
2017-12-23T19:50:47.964Z,213.27
2017-12-23T19:53:16.772Z,192.03
2017-12-23T19:55:45.440Z,76.60
2017-12-23T19:58:14.107Z,68.53
2017-12-23T20:00:43.114Z,135.90
2017-12-23T20:03:11.800Z,170.00
2017-12-23T20:05:40.376Z,205.70
2017-12-23T20:08:09.272Z,505.80
2017-12-23T20:10:37.921Z,434.47
2017-12-23T20:13:06.642Z,163.47
2017-12-23T20:15:35.482Z,331.70
2017-12-23T20:18:04.837Z,263.70
2017-12-23T20:20:33.422Z,157.70
2017-12-23T20:23:02.306Z,201.87
2017-12-23T20:25:30.896Z,265.67
2017-12-23T20:27:59.580Z,290.90
2017-12-23T20:30:28.314Z,240.40
2017-12-23T20:32:57.774Z,333.90
2017-12-23T20:35:26.398Z,185.70
2017-12-23T20:37:55.867Z,250.23
2017-12-23T20:40:24.429Z,231.10
2017-12-23T20:42:53.131Z,194.67
2017-12-23T20:45:21.809Z,206.27
2017-12-23T20:47:50.354Z,184.37
2017-12-23T20:50:19.030Z,178.53
2017-12-23T20:52:48.523Z,157.77
2017-12-23T20:55:17.987Z,192.27
2017-12-23T20:57:46.673Z,92.57
2017-12-23T21:00:15.568Z,110.97
2017-12-23T21:02:44.194Z,87.23
2017-12-23T21:05:13.652Z,56.37
2017-12-23T21:07:42.447Z,44.17
2017-12-23T21:10:11.133Z,45.70
2017-12-23T21:12:39.819Z,49.43
2017-12-23T21:15:08.409Z,50.97
2017-12-23T21:17:37.191Z,43.77
2017-12-23T21:20:05.921Z,71.17
2017-12-23T21:22:35.383Z,124.40
2017-12-23T21:25:04.059Z,91.67
2017-12-23T21:27:32.746Z,92.37
2017-12-23T21:30:01.542Z,85.67
2017-12-23T21:32:30.179Z,86.83
2017-12-23T21:34:59.627Z,67.40
2017-12-23T21:37:28.731Z,160.07
2017-12-23T21:39:57.363Z,59.47
2017-12-23T21:42:25.991Z,78.43
2017-12-23T21:44:54.776Z,61.77
2017-12-23T21:47:23.413Z,93.43
2017-12-23T21:49:52.871Z,134.37
2017-12-23T21:52:21.551Z,151.10
2017-12-23T21:54:50.243Z,103.50
2017-12-23T21:57:19.066Z,123.83
2017-12-23T21:59:48.677Z,80.13
2017-12-23T22:02:18.144Z,128.83
2017-12-23T22:04:46.833Z,158.50
2017-12-23T22:07:16.536Z,111.53
2017-12-23T22:09:45.080Z,67.93
2017-12-23T22:12:13.809Z,68.87
2017-12-23T22:14:42.557Z,54.83
2017-12-23T22:17:11.281Z,37.40
2017-12-23T22:19:39.966Z,39.17
2017-12-23T22:22:08.660Z,43.57
2017-12-23T22:24:37.378Z,59.53
2017-12-23T22:27:06.793Z,79.40
2017-12-23T22:29:36.289Z,95.87
2017-12-23T22:32:05.754Z,102.37
2017-12-23T22:34:34.370Z,110.90
2017-12-23T22:37:03.015Z,48.10
2017-12-23T22:39:31.701Z,54.13
2017-12-23T22:42:00.387Z,37.43
2017-12-23T22:44:29.544Z,36.27
2017-12-23T22:46:58.275Z,31.80
2017-12-23T22:49:26.961Z,26.17
2017-12-23T22:51:55.954Z,29.17
2017-12-23T22:54:24.592Z,47.70
2017-12-23T22:56:53.325Z,64.83
2017-12-23T22:59:22.110Z,38.53
2017-12-23T23:01:50.796Z,39.70
2017-12-23T23:04:19.481Z,38.03
2017-12-23T23:06:48.069Z,39.93
2017-12-23T23:09:16.755Z,37.03
2017-12-23T23:11:45.441Z,41.60
2017-12-23T23:14:14.225Z,48.37
2017-12-23T23:16:42.911Z,56.37
2017-12-23T23:19:11.597Z,41.60
2017-12-23T23:21:41.185Z,47.80
2017-12-23T23:24:09.853Z,27.97
2017-12-23T23:26:38.577Z,33.87
2017-12-23T23:29:07.262Z,39.40
2017-12-23T23:31:35.950Z,33.93
2017-12-23T23:34:04.537Z,34.83
2017-12-23T23:36:33.221Z,27.73
2017-12-23T23:39:01.908Z,31.97
2017-12-23T23:41:31.323Z,29.73
2017-12-23T23:44:01.083Z,34.17
2017-12-23T23:46:29.769Z,32.27
2017-12-23T23:48:58.404Z,35.73
2017-12-23T23:51:27.448Z,33.00
2017-12-23T23:53:56.053Z,36.90
2017-12-23T23:56:24.807Z,33.27
2017-12-23T23:58:53.550Z,42.53
